ePrivacy and GPDR Cookie Consent by Cookie Consent
EmailTwitter


Observations de surface / Québec / CYHU (71371)

Régions: Québec | Canada | États-Unis | Europe | France | UK | Ailleurs
Station
Affichage
Infos & localisation pour CYHU (71371) | Aide pour décoder les METARs

Observations prises le 2021-10-17 à 15H00 UTC à MONTREAL/ST HUBE, QB (CYHU)

Etat du ciel: dégagé.

Température: 12.0 Celsius

Point de rosée: 7.0 Celsius

Humidité relative: 71%

Vents: Ouest à 19 km/h ou 10 noeuds.

Pression au niveau moyen de la mer: 100.58 kilopascals.

Calage altimétrique: 100.58 kilopascals ou 29.70 pouces de mercure.

Visibilité horizontale: 9.00 milles terrestres ou 14.40 kilomètres.

Observation METAR:

CYHU 171500Z AUTO 27010KT 9SM CLR 12/07 A2970 RMK SLP058 DENSITY ALT 100FT=